Time;durP1;ratioP1;P1;durP2;ratioP2;P2;SDS_P1;SDS_P2;PMS_P1;PMS_P2;Temp;Humidity;BMP_temperature;BMP_pressure;BME280_temperature;BME280_humidity;BME280_pressure;Samples;Min_cycle;Max_cycle;Signal;HPM_P1;HPM_P2
2024/04/04 00:01:53;;;;;;;0.60;0.60;;;;;;;15.83;58.23;99281.66;5112371;28;20677;-68
2024/04/04 00:04:19;;;;;;;0.70;0.70;;;;;;;15.84;58.59;99286.72;5113020;28;20194;-68
2024/04/04 00:06:45;;;;;;;0.70;0.70;;;;;;;15.81;58.39;99283.47;5113237;28;20689;-68
2024/04/04 00:09:12;;;;;;;0.60;0.60;;;;;;;15.77;58.63;99283.63;5113122;28;20195;-68
2024/04/04 00:11:38;;;;;;;0.57;0.57;;;;;;;15.74;59.28;99286.38;5112612;28;20198;-68
2024/04/04 00:14:05;;;;;;;0.83;0.83;;;;;;;15.67;59.57;99285.03;5113352;28;20259;-68
2024/04/04 00:16:33;;;;;;;0.80;0.80;;;;;;;15.54;59.46;99289.16;5112241;28;20198;-67
2024/04/04 00:19:00;;;;;;;0.60;0.60;;;;;;;15.44;59.66;99290.56;5112831;28;20195;-68
2024/04/04 00:21:26;;;;;;;0.63;0.63;;;;;;;15.37;60.26;99288.38;5113018;28;21748;-68
2024/04/04 00:23:52;;;;;;;0.70;0.70;;;;;;;15.38;60.13;99298.59;5112258;28;20203;-68
2024/04/04 00:26:20;;;;;;;1.37;0.60;;;;;;;15.40;60.82;99285.63;5112769;28;20212;-68
2024/04/04 00:28:47;;;;;;;0.60;0.60;;;;;;;15.41;60.67;99290.69;5111620;28;20210;-68
2024/04/04 00:31:12;;;;;;;0.60;0.60;;;;;;;15.41;60.22;99298.44;5112096;28;20205;-68
2024/04/04 00:33:40;;;;;;;1.23;1.23;;;;;;;15.42;60.20;99301.84;5112232;28;20198;-68
2024/04/04 00:36:06;;;;;;;0.60;0.60;;;;;;;15.39;60.52;99292.53;5112236;28;20285;-68
2024/04/04 00:38:34;;;;;;;0.63;0.63;;;;;;;15.30;60.48;99276.66;5112898;27;20282;-68
2024/04/04 00:41:00;;;;;;;0.70;0.70;;;;;;;15.31;59.87;99291.25;5113313;27;20194;-68
2024/04/04 00:43:27;;;;;;;0.70;0.70;;;;;;;15.28;60.02;99281.94;5112822;28;20221;-68
2024/04/04 00:45:52;;;;;;;0.87;0.87;;;;;;;15.20;60.45;99282.31;5112444;28;20206;-68
2024/04/04 00:48:19;;;;;;;0.60;0.60;;;;;;;15.15;60.75;99275.72;5111929;28;20244;-68
2024/04/04 00:50:47;;;;;;;1.00;1.00;;;;;;;15.08;61.69;99280.34;5110411;28;20598;-67
2024/04/04 00:53:13;;;;;;;2.67;2.47;;;;;;;15.02;62.24;99274.66;5112330;28;20565;-68
2024/04/04 00:55:40;;;;;;;1.27;1.10;;;;;;;14.90;62.96;99270.94;5112170;28;20259;-68
2024/04/04 00:58:06;;;;;;;1.10;1.00;;;;;;;14.86;63.26;99273.75;5112098;28;20629;-68
2024/04/04 01:00:32;;;;;;;1.37;0.70;;;;;;;14.76;63.63;99280.28;5112330;28;20194;-68
2024/04/04 01:02:59;;;;;;;1.50;0.80;;;;;;;14.43;65.23;99291.31;5111440;28;20275;-68
2024/04/04 01:05:24;;;;;;;0.70;0.70;;;;;;;14.22;67.15;99294.84;5111895;28;20210;-68
2024/04/04 01:07:54;;;;;;;0.63;0.63;;;;;;;14.25;66.84;99284.38;5111852;28;20244;-67
2024/04/04 01:10:20;;;;;;;0.70;0.60;;;;;;;14.22;66.63;99287.13;5111173;28;20209;-68
2024/04/04 01:12:47;;;;;;;0.90;0.90;;;;;;;14.22;66.95;99276.00;5111823;28;20697;-68
2024/04/04 01:15:12;;;;;;;0.60;0.60;;;;;;;14.16;67.86;99277.09;5111770;28;20198;-68
2024/04/04 01:17:39;;;;;;;0.90;0.90;;;;;;;14.13;67.97;99272.09;5111615;28;20212;-66
2024/04/04 01:20:06;;;;;;;0.53;0.53;;;;;;;14.14;67.73;99273.75;5111260;28;20284;-66
2024/04/04 01:22:33;;;;;;;0.80;0.80;;;;;;;14.15;66.63;99278.81;5110313;28;20218;-66
2024/04/04 01:25:00;;;;;;;0.57;0.57;;;;;;;14.06;65.93;99261.22;5110740;28;20213;-66
2024/04/04 01:27:27;;;;;;;0.60;0.60;;;;;;;14.16;65.22;99272.78;5111576;28;20203;-66
2024/04/04 01:29:52;;;;;;;0.60;0.60;;;;;;;14.09;65.33;99270.53;5111311;28;20201;-66
2024/04/04 01:32:19;;;;;;;0.60;0.60;;;;;;;14.07;65.11;99272.38;5111578;28;20708;-67
2024/04/04 01:34:45;;;;;;;0.40;0.40;;;;;;;14.10;64.74;99277.38;5110793;28;20199;-66
2024/04/04 01:37:12;;;;;;;0.67;0.67;;;;;;;14.13;64.64;99287.53;5111277;28;20711;-66
2024/04/04 01:39:37;;;;;;;0.57;0.57;;;;;;;14.17;64.23;99286.50;5110911;28;20199;-66
2024/04/04 01:42:06;;;;;;;2.77;0.70;;;;;;;14.15;63.89;99280.59;5110838;28;20261;-66
2024/04/04 01:44:32;;;;;;;0.60;0.60;;;;;;;14.09;63.74;99265.38;5108088;28;20204;-66
2024/04/04 01:46:58;;;;;;;0.70;0.70;;;;;;;14.22;63.82;99287.13;5111413;28;20195;-66
2024/04/04 01:49:24;;;;;;;0.80;0.80;;;;;;;14.21;63.86;99280.31;5110853;28;20229;-66
2024/04/04 01:51:51;;;;;;;0.97;0.97;;;;;;;14.19;63.25;99282.94;5110996;28;20326;-66
2024/04/04 01:54:17;;;;;;;0.70;0.70;;;;;;;14.24;63.21;99280.16;5110440;28;20735;-66
2024/04/04 01:56:43;;;;;;;0.70;0.70;;;;;;;14.24;63.02;99277.59;5110959;28;20289;-66
2024/04/04 01:59:11;;;;;;;0.80;0.80;;;;;;;14.26;63.07;99278.34;5110837;28;20198;-66
2024/04/04 02:01:37;;;;;;;0.83;0.83;;;;;;;14.26;63.83;99287.81;5110840;28;20202;-66
2024/04/04 02:04:03;;;;;;;0.80;0.80;;;;;;;14.23;63.75;99287.94;5110761;28;20299;-66
2024/04/04 02:06:30;;;;;;;0.70;0.70;;;;;;;14.27;64.38;99280.03;5110764;28;20299;-66
2024/04/04 02:08:56;;;;;;;0.60;0.60;;;;;;;14.32;64.46;99285.78;5110721;28;20256;-67
2024/04/04 02:11:23;;;;;;;0.70;0.70;;;;;;;14.44;64.33;99305.84;5110113;28;20206;-66
2024/04/04 02:13:48;;;;;;;0.60;0.60;;;;;;;14.45;64.30;99304.97;5109588;28;20620;-66
2024/04/04 02:16:17;;;;;;;0.80;0.80;;;;;;;14.47;64.12;99299.75;5110593;28;20199;-67
2024/04/04 02:18:43;;;;;;;0.70;0.70;;;;;;;14.39;65.81;99307.00;5110299;28;20240;-67
2024/04/04 02:21:10;;;;;;;1.30;1.20;;;;;;;14.30;66.28;99313.38;5110640;28;20222;-66
2024/04/04 02:23:36;;;;;;;0.60;0.60;;;;;;;14.26;66.44;99314.44;5110502;28;20788;-66
2024/04/04 02:26:03;;;;;;;0.67;0.67;;;;;;;14.25;67.06;99317.91;5110513;28;20202;-66
2024/04/04 02:28:29;;;;;;;1.17;1.17;;;;;;;14.20;67.42;99314.72;5110487;28;20657;-66
2024/04/04 02:30:55;;;;;;;0.83;0.83;;;;;;;14.13;67.65;99308.16;5110143;28;20254;-66
2024/04/04 02:33:22;;;;;;;1.00;1.00;;;;;;;14.04;68.15;99308.59;5110085;28;20751;-66
2024/04/04 02:35:53;;;;;;;0.80;0.80;;;;;;;13.99;68.83;99320.88;5110310;28;20248;-66
2024/04/04 02:38:19;;;;;;;0.97;0.97;;;;;;;13.85;69.45;99330.94;5109990;28;20203;-66
2024/04/04 02:40:46;;;;;;;1.40;1.30;;;;;;;13.77;70.05;99330.44;5110740;28;20194;-67
2024/04/04 02:43:12;;;;;;;0.83;0.83;;;;;;;13.72;70.25;99322.09;5110097;28;20226;-66
2024/04/04 02:45:38;;;;;;;0.97;0.97;;;;;;;13.70;70.72;99313.59;5109703;28;20203;-66
2024/04/04 02:48:05;;;;;;;0.70;0.70;;;;;;;13.73;70.68;99303.16;5109988;28;20252;-67
2024/04/04 02:50:33;;;;;;;0.83;0.83;;;;;;;13.74;70.33;99294.50;5110158;28;20707;-66
2024/04/04 02:52:58;;;;;;;2.83;0.93;;;;;;;13.71;70.81;99294.66;5110063;28;20255;-66
2024/04/04 02:55:25;;;;;;;1.30;1.30;;;;;;;13.63;70.32;99298.38;5110832;28;20203;-66
2024/04/04 02:57:51;;;;;;;0.87;0.87;;;;;;;13.66;70.74;99313.75;5108977;28;20668;-66
2024/04/04 03:00:18;;;;;;;0.90;0.90;;;;;;;13.64;70.72;99310.38;5110317;28;20234;-66
2024/04/04 03:02:44;;;;;;;1.87;1.53;;;;;;;13.62;70.48;99307.03;5110494;28;20220;-66
2024/04/04 03:05:10;;;;;;;1.07;1.07;;;;;;;13.61;70.51;99312.25;5110018;28;20250;-66
2024/04/04 03:07:38;;;;;;;0.93;0.93;;;;;;;13.61;70.47;99304.50;5110201;28;20198;-66
2024/04/04 03:10:06;;;;;;;0.90;0.90;;;;;;;13.61;70.45;99310.50;5109714;28;20210;-65
2024/04/04 03:12:32;;;;;;;1.20;1.20;;;;;;;13.61;71.23;99315.66;5109872;28;20191;-66
2024/04/04 03:14:58;;;;;;;2.20;1.03;;;;;;;13.57;71.39;99316.69;5109496;28;20215;-66
2024/04/04 03:17:25;;;;;;;0.90;0.90;;;;;;;13.51;72.01;99318.69;5110081;28;20684;-65
2024/04/04 03:19:52;;;;;;;0.83;0.83;;;;;;;13.47;71.89;99306.88;5109911;28;20669;-67
2024/04/04 03:22:18;;;;;;;4.63;1.33;;;;;;;13.46;72.23;99307.78;5112035;28;20212;-66
2024/04/04 03:24:46;;;;;;;1.33;1.30;;;;;;;13.36;72.18;99288.47;5114293;28;20213;-66
2024/04/04 03:27:11;;;;;;;1.00;1.00;;;;;;;13.48;71.47;99308.53;5113761;28;20718;-66
2024/04/04 03:29:38;;;;;;;1.13;0.83;;;;;;;13.48;71.66;99313.69;5114074;28;20199;-66
2024/04/04 03:32:04;;;;;;;1.23;1.23;;;;;;;13.48;71.76;99303.38;5113393;28;20190;-65
2024/04/04 03:34:31;;;;;;;1.67;1.30;;;;;;;13.46;71.88;99300.03;5113594;28;20195;-66
2024/04/04 03:36:57;;;;;;;2.63;1.30;;;;;;;13.48;71.76;99304.22;5113777;28;20255;-67
2024/04/04 03:39:23;;;;;;;1.27;1.20;;;;;;;13.42;71.95;99301.91;5113767;28;20203;-66
2024/04/04 03:41:50;;;;;;;2.33;1.97;;;;;;;13.34;71.93;99288.56;5113601;28;20262;-66
2024/04/04 03:44:17;;;;;;;1.70;0.80;;;;;;;13.40;72.34;99314.03;5112122;28;20207;-66
2024/04/04 03:46:43;;;;;;;1.50;1.50;;;;;;;13.39;72.33;99309.78;5113986;28;20252;-66
2024/04/04 03:49:09;;;;;;;2.00;1.80;;;;;;;13.32;71.85;99292.91;5111520;28;20233;-66
2024/04/04 03:51:35;;;;;;;0.90;0.90;;;;;;;13.38;71.97;99305.50;5113604;28;20733;-66
2024/04/04 03:54:02;;;;;;;1.00;1.00;;;;;;;13.38;72.37;99312.41;5113753;28;20198;-66
2024/04/04 03:56:27;;;;;;;0.90;0.90;;;;;;;13.29;72.01;99303.34;5113147;28;20206;-66
2024/04/04 03:58:55;;;;;;;1.53;1.43;;;;;;;13.33;72.10;99304.88;5113526;28;20275;-66
2024/04/04 04:01:21;;;;;;;1.00;1.00;;;;;;;13.31;72.17;99301.53;5112896;28;20194;-66
2024/04/04 04:03:50;;;;;;;1.00;1.00;;;;;;;13.28;72.52;99293.13;5112888;28;20224;-66
2024/04/04 04:06:15;;;;;;;0.87;0.87;;;;;;;13.25;72.49;99304.38;5113280;28;20575;-66
2024/04/04 04:08:42;;;;;;;1.20;1.20;;;;;;;13.23;72.59;99308.75;5113123;28;20195;-66
2024/04/04 04:11:08;;;;;;;0.70;0.70;;;;;;;13.22;72.68;99313.94;5113233;28;20289;-66
2024/04/04 04:13:35;;;;;;;1.17;1.17;;;;;;;13.18;72.48;99310.69;5112657;28;20391;-66
2024/04/04 04:16:02;;;;;;;13.87;1.20;;;;;;;13.17;73.33;99318.47;5111983;28;20206;-66
2024/04/04 04:18:29;;;;;;;1.53;1.43;;;;;;;13.10;73.03;99315.31;5112557;28;20277;-66
2024/04/04 04:23:40;;;;;;;1.10;1.10;;;;;;;12.81;73.34;99321.63;5112126;28;20589;-65
2024/04/04 04:26:06;;;;;;;3.87;1.10;;;;;;;12.78;73.35;99321.75;5113212;28;20260;-66
2024/04/04 04:28:33;;;;;;;1.20;1.20;;;;;;;12.76;73.60;99318.41;5112775;28;20207;-66
2024/04/04 04:30:59;;;;;;;0.80;0.80;;;;;;;12.59;73.52;99313.09;5112427;28;20201;-66
2024/04/04 04:33:29;;;;;;;9.80;1.93;;;;;;;12.45;73.57;99323.06;5112179;28;20244;-66
2024/04/04 04:35:55;;;;;;;1.83;1.83;;;;;;;12.38;74.07;99322.47;5112477;28;20251;-67
2024/04/04 04:38:22;;;;;;;1.47;1.43;;;;;;;12.24;74.31;99324.75;5111135;28;20658;-66
2024/04/04 04:40:51;;;;;;;4.63;1.47;;;;;;;12.25;74.61;99330.72;5111681;27;20321;-65
2024/04/04 04:43:18;;;;;;;2.23;1.10;;;;;;;12.30;75.20;99350.22;5111980;27;20211;-66
2024/04/04 04:45:46;;;;;;;1.40;1.30;;;;;;;12.32;74.66;99339.88;5112322;28;20230;-66
2024/04/04 04:48:15;;;;;;;2.80;1.10;;;;;;;12.32;74.53;99337.28;5110064;28;20206;-66
2024/04/04 04:50:43;;;;;;;0.60;0.60;;;;;;;12.28;74.51;99340.91;5111956;28;20680;-66
2024/04/04 04:53:09;;;;;;;2.57;0.70;;;;;;;12.19;74.49;99336.94;5111916;28;20195;-66
2024/04/04 04:55:36;;;;;;;0.50;0.50;;;;;;;12.25;74.87;99346.97;5112436;28;20191;-66
2024/04/04 04:58:02;;;;;;;0.73;0.73;;;;;;;12.17;74.56;99333.59;5111987;28;20203;-66
2024/04/04 05:00:28;;;;;;;1.10;1.00;;;;;;;12.35;75.51;99343.16;5112064;28;20271;-66
2024/04/04 05:02:54;;;;;;;1.10;1.10;;;;;;;12.42;75.13;99307.78;5111278;27;20655;-66
2024/04/04 05:05:21;;;;;;;1.27;1.17;;;;;;;12.83;74.04;99336.97;5106320;28;20503;-66
2024/04/04 05:07:48;;;;;;;0.53;0.53;;;;;;;13.09;73.62;99331.66;5110602;28;20194;-66
2024/04/04 05:10:15;;;;;;;1.13;0.80;;;;;;;13.40;72.88;99331.22;5110277;28;20209;-66
2024/04/04 05:12:40;;;;;;;0.87;0.87;;;;;;;13.75;72.11;99340.00;5110318;28;20206;-66
2024/04/04 05:15:08;;;;;;;0.70;0.70;;;;;;;14.10;70.78;99339.25;5109043;28;20259;-66
2024/04/04 05:17:34;;;;;;;1.07;0.97;;;;;;;14.41;70.85;99344.69;5111717;28;20208;-66
2024/04/04 05:20:01;;;;;;;0.70;0.70;;;;;;;14.76;69.73;99339.63;5111503;28;20213;-66
2024/04/04 05:22:27;;;;;;;0.83;0.83;;;;;;;15.09;69.05;99349.13;5111088;28;20582;-66
2024/04/04 05:24:56;;;;;;;0.90;0.90;;;;;;;15.37;68.34;99358.94;5111521;28;20265;-67
2024/04/04 05:27:22;;;;;;;0.60;0.60;;;;;;;15.46;66.62;99353.31;5109645;28;20209;-67
2024/04/04 05:29:53;;;;;;;1.17;1.00;;;;;;;15.65;67.19;99356.66;5110821;28;20289;-66
2024/04/04 05:32:18;;;;;;;4.00;0.77;;;;;;;15.93;68.25;99357.81;5111347;28;20210;-66
2024/04/04 05:34:47;;;;;;;0.80;0.80;;;;;;;16.19;68.45;99359.81;5111717;28;20735;-66
2024/04/04 05:37:13;;;;;;;0.80;0.80;;;;;;;16.47;66.46;99365.19;5111067;28;20685;-66
2024/04/04 05:39:40;;;;;;;1.00;1.00;;;;;;;16.70;66.28;99362.19;5111353;27;20205;-67
2024/04/04 05:42:07;;;;;;;0.90;0.90;;;;;;;16.95;65.26;99366.00;5110632;28;20191;-66
2024/04/04 05:44:33;;;;;;;0.90;0.90;;;;;;;17.22;64.11;99365.25;5111168;28;20753;-67
2024/04/04 05:46:59;;;;;;;0.83;0.83;;;;;;;17.39;62.95;99361.69;5111172;28;20194;-67
2024/04/04 05:49:26;;;;;;;0.53;0.53;;;;;;;17.65;62.37;99355.00;5108349;28;20283;-67
2024/04/04 05:51:52;;;;;;;0.80;0.80;;;;;;;17.72;60.97;99332.97;5109809;28;20195;-66
2024/04/04 05:54:19;;;;;;;2.90;0.90;;;;;;;18.08;59.91;99351.47;5110363;28;20190;-66
2024/04/04 05:56:44;;;;;;;1.50;0.67;;;;;;;18.37;57.88;99362.66;5109806;27;20202;-68
2024/04/04 05:59:12;;;;;;;1.20;0.73;;;;;;;18.65;57.67;99365.19;5108991;27;20499;-63
2024/04/04 06:01:38;;;;;;;0.93;0.80;;;;;;;19.08;56.13;99359.84;5109416;28;20258;-64
2024/04/04 06:04:05;;;;;;;0.80;0.80;;;;;;;19.39;54.95;99359.47;5109617;28;20221;-63
2024/04/04 06:06:31;;;;;;;0.80;0.80;;;;;;;19.60;53.03;99350.28;5110134;28;20250;-64
2024/04/04 06:08:57;;;;;;;0.80;0.80;;;;;;;19.87;52.39;99355.38;5110450;28;20206;-64
2024/04/04 06:11:24;;;;;;;0.80;0.80;;;;;;;20.18;50.93;99370.50;5110551;28;20668;-64
2024/04/04 06:13:50;;;;;;;0.63;0.63;;;;;;;20.42;49.98;99367.97;5110405;28;20243;-63
2024/04/04 06:16:17;;;;;;;0.90;0.90;;;;;;;20.63;47.66;99376.88;5109972;28;20201;-68
2024/04/04 06:18:44;;;;;;;0.50;0.50;;;;;;;20.75;47.02;99369.94;5109177;28;20208;-64
2024/04/04 06:21:10;;;;;;;1.10;1.10;;;;;;;20.93;45.32;99385.09;5110255;28;20198;-64
2024/04/04 06:23:37;;;;;;;1.67;0.80;;;;;;;21.08;47.75;99387.50;5111078;28;20279;-64
2024/04/04 06:26:04;;;;;;;0.57;0.57;;;;;;;21.22;47.07;99395.19;5111097;28;20203;-63
2024/04/04 06:28:30;;;;;;;3.20;0.80;;;;;;;21.30;47.17;99392.81;5110647;28;20233;-63
2024/04/04 06:30:56;;;;;;;0.90;0.90;;;;;;;21.43;46.40;99396.19;5110898;28;20628;-63
2024/04/04 06:33:24;;;;;;;1.00;1.00;;;;;;;21.58;46.26;99397.66;5109438;28;20197;-63
2024/04/04 06:35:50;;;;;;;0.70;0.70;;;;;;;21.76;46.10;99401.47;5110424;28;20202;-63
2024/04/04 06:38:17;;;;;;;0.70;0.70;;;;;;;22.01;43.97;99399.63;5109255;28;20198;-64
2024/04/04 06:40:42;;;;;;;0.83;0.83;;;;;;;22.11;42.59;99398.81;5111033;27;20202;-63
2024/04/04 06:43:09;;;;;;;0.73;0.73;;;;;;;22.33;42.27;99392.72;5108433;28;20267;-63
2024/04/04 06:45:35;;;;;;;1.60;0.60;;;;;;;22.48;41.08;99394.16;5108814;28;20260;-64
2024/04/04 06:48:01;;;;;;;0.50;0.50;;;;;;;22.54;45.52;99392.84;5109373;28;20202;-64
2024/04/04 06:50:29;;;;;;;1.03;0.67;;;;;;;22.63;45.56;99392.94;5109589;28;20226;-63
2024/04/04 06:52:55;;;;;;;0.60;0.60;;;;;;;22.72;44.02;99394.00;5109982;28;20198;-64
2024/04/04 06:55:21;;;;;;;0.77;0.77;;;;;;;22.74;46.22;99400.78;5110676;28;20202;-63
2024/04/04 06:57:48;;;;;;;0.87;0.87;;;;;;;22.79;46.35;99388.16;5114997;28;20263;-63
2024/04/04 07:00:15;;;;;;;0.97;0.60;;;;;;;22.58;46.09;99395.09;5114666;28;20255;-64
2024/04/04 07:02:41;;;;;;;0.63;0.63;;;;;;;22.62;46.58;99395.69;5114819;28;20259;-63
2024/04/04 07:05:08;;;;;;;0.50;0.50;;;;;;;22.65;45.94;99395.44;5114853;28;20686;-63
2024/04/04 07:07:36;;;;;;;0.80;0.80;;;;;;;22.50;44.21;99394.84;5112653;28;20207;-63
2024/04/04 07:10:04;;;;;;;0.60;0.60;;;;;;;22.64;43.92;99384.16;5114325;28;20202;-63
2024/04/04 07:12:32;;;;;;;0.70;0.70;;;;;;;22.70;45.32;99401.97;5114702;28;20270;-63
2024/04/04 07:14:57;;;;;;;2.00;0.70;;;;;;;22.82;43.49;99395.75;5113738;28;20214;-64
2024/04/04 07:17:24;;;;;;;0.70;0.70;;;;;;;22.83;45.10;99397.44;5111897;28;20217;-63
2024/04/04 07:19:52;;;;;;;1.03;1.03;;;;;;;22.90;42.53;99384.69;5111668;28;20202;-63
2024/04/04 07:22:19;;;;;;;0.63;0.63;;;;;;;22.97;41.83;99378.81;5111907;28;20233;-63
2024/04/04 07:24:47;;;;;;;0.70;0.70;;;;;;;23.09;42.97;99389.25;5111796;28;20395;-64
2024/04/04 07:27:13;;;;;;;0.60;0.60;;;;;;;22.96;43.33;99397.28;5112332;28;20207;-63
2024/04/04 07:29:39;;;;;;;3.17;0.57;;;;;;;23.06;42.69;99390.34;5112788;28;20267;-63
2024/04/04 07:32:07;;;;;;;0.50;0.50;;;;;;;23.16;43.04;99388.63;5112006;28;20203;-63
2024/04/04 07:34:33;;;;;;;0.83;0.83;;;;;;;23.17;41.49;99386.81;5112450;28;20712;-63
2024/04/04 07:37:00;;;;;;;2.53;0.57;;;;;;;23.29;42.00;99385.84;5111952;28;20206;-64
2024/04/04 07:39:26;;;;;;;0.90;0.90;;;;;;;23.52;41.89;99387.41;5112550;28;20198;-64
2024/04/04 07:41:55;;;;;;;0.67;0.67;;;;;;;23.76;40.55;99384.50;5112969;28;20694;-64
2024/04/04 07:44:21;;;;;;;0.40;0.40;;;;;;;23.83;41.78;99380.41;5112497;28;20215;-63
2024/04/04 07:46:53;;;;;;;0.80;0.80;;;;;;;23.97;41.01;99386.13;5113234;28;20199;-63
2024/04/04 07:49:19;;;;;;;0.50;0.50;;;;;;;24.09;38.35;99375.56;5113447;28;20284;-63
2024/04/04 07:51:46;;;;;;;3.40;0.80;;;;;;;23.91;38.49;99378.00;5111487;28;20202;-63
2024/04/04 07:54:12;;;;;;;0.50;0.50;;;;;;;23.84;41.91;99369.81;5113739;28;20190;-64
2024/04/04 07:56:39;;;;;;;2.20;0.80;;;;;;;23.94;38.16;99365.44;5114039;28;20279;-64
2024/04/04 07:59:06;;;;;;;0.93;0.50;;;;;;;24.05;37.36;99372.38;5113781;28;20198;-64
2024/04/04 08:01:32;;;;;;;0.50;0.50;;;;;;;24.14;39.27;99366.38;5112488;28;20600;-64
2024/04/04 08:03:59;;;;;;;0.40;0.40;;;;;;;24.34;38.16;99369.88;5113768;28;20222;-64
2024/04/04 08:06:25;;;;;;;0.50;0.50;;;;;;;24.48;36.23;99374.75;5113538;28;20727;-64
2024/04/04 08:08:51;;;;;;;0.50;0.50;;;;;;;24.56;34.45;99370.50;5112826;28;20264;-64
2024/04/04 08:11:21;;;;;;;0.50;0.50;;;;;;;24.44;34.43;99368.13;5113545;28;20202;-64
2024/04/04 08:13:46;;;;;;;0.50;0.50;;;;;;;24.66;38.84;99375.75;5111758;28;20719;-64
2024/04/04 08:16:17;;;;;;;0.80;0.80;;;;;;;24.38;38.15;99347.69;5113483;28;20203;-64
2024/04/04 08:18:42;;;;;;;0.50;0.50;;;;;;;24.78;37.94;99366.78;5114732;27;20252;-64
2024/04/04 08:21:09;;;;;;;0.50;0.50;;;;;;;24.81;37.17;99369.16;5113304;28;20199;-65
2024/04/04 08:23:35;;;;;;;0.63;0.63;;;;;;;24.85;38.42;99370.56;5113285;28;20682;-64
2024/04/04 08:26:02;;;;;;;0.50;0.50;;;;;;;25.07;35.63;99370.28;5112968;28;20251;-64
2024/04/04 08:28:29;;;;;;;0.53;0.53;;;;;;;25.14;35.33;99369.75;5112905;28;20308;-64
2024/04/04 08:30:59;;;;;;;0.60;0.60;;;;;;;25.39;36.21;99369.16;5113450;28;20206;-64
2024/04/04 08:33:26;;;;;;;0.40;0.40;;;;;;;25.52;36.10;99361.84;5111752;28;20190;-63
2024/04/04 08:35:53;;;;;;;0.63;0.60;;;;;;;25.51;37.34;99357.56;5112865;28;20281;-64
2024/04/04 08:38:19;;;;;;;0.70;0.70;;;;;;;25.50;38.09;99340.16;5112995;28;20649;-64
2024/04/04 08:40:46;;;;;;;0.63;0.63;;;;;;;25.41;38.74;99352.28;5112133;28;20252;-69
2024/04/04 08:43:12;;;;;;;0.50;0.50;;;;;;;24.92;34.94;99340.19;5111292;28;20267;-65
2024/04/04 08:45:46;;;;;;;1.00;0.40;;;;;;;24.98;35.00;99347.50;5110099;28;20800;-65
2024/04/04 08:48:14;;;;;;;0.57;0.57;;;;;;;25.33;34.34;99346.09;5111093;28;20684;-65
2024/04/04 08:50:45;;;;;;;0.40;0.40;;;;;;;25.49;35.74;99343.72;5109915;27;20234;-65
2024/04/04 08:53:12;;;;;;;0.50;0.50;;;;;;;25.29;36.84;99334.22;5109510;28;20276;-65
2024/04/04 08:55:39;;;;;;;0.50;0.50;;;;;;;25.30;36.69;99334.06;5110900;27;20213;-64
2024/04/04 08:58:07;;;;;;;0.53;0.50;;;;;;;25.15;37.46;99329.41;5111731;28;20206;-64
2024/04/04 09:00:34;;;;;;;0.70;0.70;;;;;;;25.30;36.32;99333.28;5109004;28;20593;-65
2024/04/04 09:03:00;;;;;;;0.60;0.60;;;;;;;25.56;37.85;99329.06;5110627;28;20279;-65
2024/04/04 09:05:27;;;;;;;0.53;0.53;;;;;;;25.63;34.61;99329.31;5109656;28;20210;-65
2024/04/04 09:07:54;;;;;;;0.70;0.70;;;;;;;25.71;33.42;99322.41;5107573;28;20202;-65
2024/04/04 09:10:20;;;;;;;0.33;0.33;;;;;;;25.83;34.39;99300.22;5110605;27;20203;-65
2024/04/04 09:12:46;;;;;;;0.40;0.40;;;;;;;25.86;36.94;99313.06;5110690;28;20786;-65
2024/04/04 09:15:14;;;;;;;0.63;0.63;;;;;;;25.96;36.80;99311.25;5110996;28;20199;-64
2024/04/04 09:17:39;;;;;;;0.50;0.50;;;;;;;26.05;36.37;99305.09;5111680;28;20215;-64
2024/04/04 09:20:10;;;;;;;0.53;0.50;;;;;;;26.14;36.50;99310.47;5110324;28;20206;-64
2024/04/04 09:22:38;;;;;;;0.60;0.60;;;;;;;26.21;35.03;99308.91;5111501;28;20206;-64
2024/04/04 09:25:07;;;;;;;0.50;0.50;;;;;;;26.10;33.83;99305.50;5111306;28;21818;-64
2024/04/04 09:27:33;;;;;;;0.50;0.50;;;;;;;26.18;34.07;99298.69;5109686;28;20638;-65
2024/04/04 09:30:00;;;;;;;0.40;0.40;;;;;;;26.22;33.20;99292.19;5111013;27;20213;-64
2024/04/04 09:32:27;;;;;;;0.30;0.30;;;;;;;26.36;34.02;99292.50;5111573;28;20210;-65
2024/04/04 09:34:54;;;;;;;0.53;0.50;;;;;;;26.26;37.86;99297.00;5110912;27;20202;-65
2024/04/04 09:37:23;;;;;;;0.60;0.60;;;;;;;26.26;34.09;99296.16;5110952;28;20203;-64
2024/04/04 09:39:50;;;;;;;0.50;0.50;;;;;;;26.03;34.37;99291.28;5110588;28;20195;-65
2024/04/04 09:42:20;;;;;;;0.60;0.60;;;;;;;25.78;34.34;99265.72;5111119;28;20201;-64
2024/04/04 09:44:47;;;;;;;0.60;0.60;;;;;;;26.08;36.34;99282.97;5108768;27;20217;-63
2024/04/04 09:47:14;;;;;;;0.50;0.50;;;;;;;25.90;34.20;99272.41;5111136;28;20202;-64
2024/04/04 09:49:41;;;;;;;0.40;0.40;;;;;;;26.11;36.24;99282.66;5102409;28;20609;-64
2024/04/04 09:52:09;;;;;;;0.47;0.47;;;;;;;26.36;33.52;99276.75;5104876;28;20230;-64
2024/04/04 09:54:36;;;;;;;0.40;0.40;;;;;;;26.56;32.48;99282.66;5103733;28;20191;-64
2024/04/04 09:57:02;;;;;;;0.40;0.40;;;;;;;26.58;36.22;99276.28;5107175;27;20195;-64
2024/04/04 09:59:31;;;;;;;0.50;0.50;;;;;;;26.71;32.73;99277.72;5108639;27;20199;-65
2024/04/04 10:02:01;;;;;;;1.03;0.50;;;;;;;26.66;29.32;99275.53;5103332;28;20252;-63
2024/04/04 10:04:33;;;;;;;0.60;0.60;;;;;;;26.51;34.29;99263.88;5112258;27;20219;-64
2024/04/04 10:06:59;;;;;;;0.40;0.40;;;;;;;26.74;32.95;99270.34;5110727;28;20198;-64
2024/04/04 10:09:27;;;;;;;0.50;0.47;;;;;;;26.91;33.51;99266.06;5110982;28;20271;-67
2024/04/04 10:11:53;;;;;;;0.40;0.40;;;;;;;26.97;32.07;99261.03;5110458;28;20293;-66
2024/04/04 10:14:21;;;;;;;0.60;0.60;;;;;;;26.84;33.54;99265.88;5111107;28;20194;-66
2024/04/04 10:16:52;;;;;;;0.53;0.53;;;;;;;26.87;30.11;99264.72;5109977;28;20280;-67
2024/04/04 10:19:20;;;;;;;0.50;0.50;;;;;;;26.94;30.57;99261.34;5109613;28;20205;-66
2024/04/04 10:21:47;;;;;;;0.47;0.47;;;;;;;26.70;32.41;99250.59;5108107;28;20199;-66
2024/04/04 10:24:20;;;;;;;2.27;0.57;;;;;;;26.67;32.21;99243.00;5109757;28;20218;-67
2024/04/04 10:26:54;;;;;;;0.40;0.40;;;;;;;26.68;32.68;99247.28;5109067;27;20202;-67
2024/04/04 10:29:21;;;;;;;0.43;0.43;;;;;;;26.82;33.37;99246.75;5109471;28;20210;-67
2024/04/04 10:31:47;;;;;;;0.40;0.40;;;;;;;26.93;31.49;99243.06;5109064;28;20254;-66
2024/04/04 10:34:15;;;;;;;0.57;0.57;;;;;;;26.89;30.80;99237.28;5109707;28;20198;-66
2024/04/04 10:36:42;;;;;;;0.73;0.73;;;;;;;26.93;31.42;99233.38;5108086;28;20210;-67
2024/04/04 10:39:12;;;;;;;0.73;0.40;;;;;;;26.88;30.89;99235.63;5107796;28;20206;-66
2024/04/04 10:41:39;;;;;;;0.60;0.50;;;;;;;26.87;30.00;99228.72;5107713;28;20199;-66
2024/04/04 10:44:14;;;;;;;0.50;0.50;;;;;;;26.76;32.64;99226.28;5107711;28;20279;-66
2024/04/04 10:46:42;;;;;;;0.50;0.50;;;;;;;26.85;32.05;99220.16;5110026;28;20198;-66
2024/04/04 10:49:11;;;;;;;0.60;0.60;;;;;;;26.88;31.30;99217.19;5108237;28;20228;-66
2024/04/04 10:51:46;;;;;;;0.60;0.60;;;;;;;26.99;29.99;99222.22;5109902;28;20203;-66
2024/04/04 10:54:12;;;;;;;0.50;0.50;;;;;;;27.04;29.37;99225.19;5107845;28;20198;-66
2024/04/04 10:56:39;;;;;;;0.50;0.50;;;;;;;27.05;28.95;99216.34;5107653;28;20203;-67
2024/04/04 10:59:06;;;;;;;0.50;0.50;;;;;;;26.89;29.96;99218.03;5106731;28;20550;-66
2024/04/04 11:01:32;;;;;;;0.50;0.50;;;;;;;26.83;29.41;99227.38;5103673;28;20199;-66
2024/04/04 11:04:00;;;;;;;0.60;0.60;;;;;;;26.89;31.07;99200.44;5107354;28;20677;-66
2024/04/04 11:06:27;;;;;;;0.50;0.50;;;;;;;26.84;29.09;99218.50;5107234;28;20194;-66
2024/04/04 11:08:55;;;;;;;0.40;0.40;;;;;;;26.78;32.11;99203.31;5108447;28;20226;-67
2024/04/04 11:11:22;;;;;;;0.47;0.47;;;;;;;26.58;29.29;99207.09;5106584;28;20206;-67
2024/04/04 11:13:49;;;;;;;1.20;0.43;;;;;;;26.71;30.02;99202.28;5107885;28;20228;-66
2024/04/04 11:16:16;;;;;;;0.60;0.60;;;;;;;26.86;29.15;99206.03;5105777;28;20710;-65
2024/04/04 11:18:44;;;;;;;0.60;0.60;;;;;;;26.88;31.50;99201.41;5108359;28;20589;-65
2024/04/04 11:21:09;;;;;;;0.60;0.60;;;;;;;26.96;29.19;99201.47;5106316;28;20215;-64
2024/04/04 11:23:36;;;;;;;0.47;0.47;;;;;;;26.92;27.52;99209.84;5108820;28;20258;-65
2024/04/04 11:26:04;;;;;;;0.53;0.53;;;;;;;26.75;27.13;99193.09;5110247;28;20631;-65
2024/04/04 11:28:30;;;;;;;0.60;0.60;;;;;;;26.97;27.65;99192.63;5109711;28;20560;-65
2024/04/04 11:30:56;;;;;;;0.60;0.60;;;;;;;27.13;29.89;99192.72;5109792;28;20195;-66
2024/04/04 11:33:23;;;;;;;0.50;0.50;;;;;;;27.21;27.36;99186.66;5104528;28;20268;-65
2024/04/04 11:35:49;;;;;;;0.97;0.40;;;;;;;27.34;26.96;99188.84;5108514;28;20201;-65